sensor_id;sensor_type;location;lat;lon;timestamp;pressure;altitude;pressure_sealevel;temperature;humidity
77321;BME280;66382;52.252;8.780;2023-02-01T00:01:21;100618.66;;;4.39;71.31
77321;BME280;66382;52.252;8.780;2023-02-01T00:03:49;100613.78;;;4.35;71.65
77321;BME280;66382;52.252;8.780;2023-02-01T00:06:14;100612.97;;;4.34;72.13
77321;BME280;66382;52.252;8.780;2023-02-01T00:08:40;100616.44;;;4.35;72.21
77321;BME280;66382;52.252;8.780;2023-02-01T00:11:07;100613.78;;;4.35;71.45
77321;BME280;66382;52.252;8.780;2023-02-01T00:13:35;100608.66;;;4.33;72.06
77321;BME280;66382;52.252;8.780;2023-02-01T00:16:05;100602.78;;;4.29;71.40
77321;BME280;66382;52.252;8.780;2023-02-01T00:18:31;100610.75;;;4.29;71.78
77321;BME280;66382;52.252;8.780;2023-02-01T00:20:58;100611.56;;;4.30;71.59
77321;BME280;66382;52.252;8.780;2023-02-01T00:23:24;100614.69;;;4.25;71.38
77321;BME280;66382;52.252;8.780;2023-02-01T00:25:50;100618.69;;;4.29;71.91
77321;BME280;66382;52.252;8.780;2023-02-01T00:28:16;100614.09;;;4.31;71.88
77321;BME280;66382;52.252;8.780;2023-02-01T00:30:42;100613.97;;;4.33;71.67
77321;BME280;66382;52.252;8.780;2023-02-01T00:33:07;100613.78;;;4.35;71.94
77321;BME280;66382;52.252;8.780;2023-02-01T00:35:33;100608.34;;;4.36;71.36
77321;BME280;66382;52.252;8.780;2023-02-01T00:38:00;100604.19;;;4.34;72.23
77321;BME280;66382;52.252;8.780;2023-02-01T00:40:26;100604.19;;;4.34;71.96
77321;BME280;66382;52.252;8.780;2023-02-01T00:42:52;100592.72;;;4.33;71.59
77321;BME280;66382;52.252;8.780;2023-02-01T00:45:18;100580.41;;;4.32;71.75
77321;BME280;66382;52.252;8.780;2023-02-01T00:47:44;100594.53;;;4.32;72.09
77321;BME280;66382;52.252;8.780;2023-02-01T00:50:10;100587.41;;;4.33;71.98
77321;BME280;66382;52.252;8.780;2023-02-01T00:52:35;100588.09;;;4.35;72.21
77321;BME280;66382;52.252;8.780;2023-02-01T00:55:03;100590.47;;;4.38;71.41
77321;BME280;66382;52.252;8.780;2023-02-01T00:57:29;100593.94;;;4.39;71.90
77321;BME280;66382;52.252;8.780;2023-02-01T00:59:54;100595.63;;;4.40;72.04
77321;BME280;66382;52.252;8.780;2023-02-01T01:02:20;100594.34;;;4.44;72.21
77321;BME280;66382;52.252;8.780;2023-02-01T01:04:46;100588.44;;;4.50;71.78
77321;BME280;66382;52.252;8.780;2023-02-01T01:07:11;100582.84;;;4.53;71.74
77321;BME280;66382;52.252;8.780;2023-02-01T01:09:37;100576.41;;;4.56;71.58
77321;BME280;66382;52.252;8.780;2023-02-01T01:12:04;100576.94;;;4.59;71.42
77321;BME280;66382;52.252;8.780;2023-02-01T01:14:30;100576.81;;;4.61;71.71
77321;BME280;66382;52.252;8.780;2023-02-01T01:16:56;100566.50;;;4.58;71.67
77321;BME280;66382;52.252;8.780;2023-02-01T01:19:21;100573.28;;;4.70;71.42
77321;BME280;66382;52.252;8.780;2023-02-01T01:21:47;100576.88;;;4.69;72.11
77321;BME280;66382;52.252;8.780;2023-02-01T01:24:13;100583.88;;;4.70;71.55
77321;BME280;66382;52.252;8.780;2023-02-01T01:26:38;100589.72;;;4.73;71.34
77321;BME280;66382;52.252;8.780;2023-02-01T01:29:05;100589.59;;;4.75;72.08
77321;BME280;66382;52.252;8.780;2023-02-01T01:31:31;100596.69;;;4.74;71.81
77321;BME280;66382;52.252;8.780;2023-02-01T01:33:59;100588.59;;;4.76;72.01
77321;BME280;66382;52.252;8.780;2023-02-01T01:36:25;100578.81;;;4.77;71.32
77321;BME280;66382;52.252;8.780;2023-02-01T01:38:52;100579.78;;;4.76;71.86
77321;BME280;66382;52.252;8.780;2023-02-01T01:41:20;100595.88;;;4.74;71.89
77321;BME280;66382;52.252;8.780;2023-02-01T01:43:52;100579.41;;;4.70;71.75
77321;BME280;66382;52.252;8.780;2023-02-01T01:46:20;100591.69;;;4.71;71.21
77321;BME280;66382;52.252;8.780;2023-02-01T01:48:50;100579.72;;;4.67;71.32
77321;BME280;66382;52.252;8.780;2023-02-01T01:51:20;100583.34;;;4.66;71.66
77321;BME280;66382;52.252;8.780;2023-02-01T01:53:50;100574.69;;;4.64;71.41
77321;BME280;66382;52.252;8.780;2023-02-01T01:56:19;100569.38;;;4.64;71.85
77321;BME280;66382;52.252;8.780;2023-02-01T01:58:45;100574.41;;;4.67;71.68
77321;BME280;66382;52.252;8.780;2023-02-01T02:01:10;100562.91;;;4.67;71.74
77321;BME280;66382;52.252;8.780;2023-02-01T02:03:42;100555.81;;;4.67;71.72
77321;BME280;66382;52.252;8.780;2023-02-01T02:06:14;100537.13;;;4.59;71.91
77321;BME280;66382;52.252;8.780;2023-02-01T02:08:40;100552.03;;;4.70;71.85
77321;BME280;66382;52.252;8.780;2023-02-01T02:11:06;100546.53;;;4.71;71.96
77321;BME280;66382;52.252;8.780;2023-02-01T02:13:35;100542.91;;;4.72;71.48
77321;BME280;66382;52.252;8.780;2023-02-01T02:16:18;100545.28;;;4.76;72.19
77321;BME280;66382;52.252;8.780;2023-02-01T02:18:57;100535.47;;;4.76;71.31
77321;BME280;66382;52.252;8.780;2023-02-01T02:21:42;100539.97;;;4.76;71.37
77321;BME280;66382;52.252;8.780;2023-02-01T02:24:38;100533.13;;;4.73;71.72
77321;BME280;66382;52.252;8.780;2023-02-01T02:27:18;100535.78;;;4.73;71.98
77321;BME280;66382;52.252;8.780;2023-02-01T02:30:11;100523.47;;;4.72;72.14
77321;BME280;66382;52.252;8.780;2023-02-01T02:35:51;100518.16;;;4.72;71.70
77321;BME280;66382;52.252;8.780;2023-02-01T02:38:26;100505.44;;;4.76;71.86
77321;BME280;66382;52.252;8.780;2023-02-01T02:41:02;100502.78;;;4.76;72.15
77321;BME280;66382;52.252;8.780;2023-02-01T02:43:35;100495.78;;;4.74;71.44
77321;BME280;66382;52.252;8.780;2023-02-01T02:46:04;100498.81;;;4.80;71.79
77321;BME280;66382;52.252;8.780;2023-02-01T02:48:38;100493.38;;;4.81;72.06
77321;BME280;66382;52.252;8.780;2023-02-01T02:51:13;100504.06;;;4.89;71.69
77321;BME280;66382;52.252;8.780;2023-02-01T02:53:51;100492.47;;;4.90;71.47
77321;BME280;66382;52.252;8.780;2023-02-01T02:56:20;100491.47;;;4.91;71.35
77321;BME280;66382;52.252;8.780;2023-02-01T02:58:46;100485.00;;;4.94;72.56
77321;BME280;66382;52.252;8.780;2023-02-01T03:01:13;100482.72;;;4.99;72.20
77321;BME280;66382;52.252;8.780;2023-02-01T03:03:39;100471.97;;;5.01;72.30
77321;BME280;66382;52.252;8.780;2023-02-01T03:06:13;100470.00;;;5.03;72.10
77321;BME280;66382;52.252;8.780;2023-02-01T03:08:40;100472.34;;;5.06;72.32
77321;BME280;66382;52.252;8.780;2023-02-01T03:11:07;100471.19;;;5.08;71.66
77321;BME280;66382;52.252;8.780;2023-02-01T03:13:37;100463.22;;;5.08;72.51
77321;BME280;66382;52.252;8.780;2023-02-01T03:16:07;100472.00;;;5.09;72.18
77321;BME280;66382;52.252;8.780;2023-02-01T03:18:41;100479.84;;;5.10;71.83
77321;BME280;66382;52.252;8.780;2023-02-01T03:21:11;100472.56;;;5.12;72.24
77321;BME280;66382;52.252;8.780;2023-02-01T03:23:39;100463.44;;;5.15;71.88
77321;BME280;66382;52.252;8.780;2023-02-01T03:26:08;100464.28;;;5.15;71.89
77321;BME280;66382;52.252;8.780;2023-02-01T03:28:40;100454.34;;;5.17;72.03
77321;BME280;66382;52.252;8.780;2023-02-01T03:31:08;100449.00;;;5.17;72.18
77321;BME280;66382;52.252;8.780;2023-02-01T03:33:34;100441.72;;;5.20;72.01
77321;BME280;66382;52.252;8.780;2023-02-01T03:36:05;100427.75;;;5.17;72.13
77321;BME280;66382;52.252;8.780;2023-02-01T03:38:40;100434.03;;;5.16;71.95
77321;BME280;66382;52.252;8.780;2023-02-01T03:41:12;100431.25;;;5.18;71.92
77321;BME280;66382;52.252;8.780;2023-02-01T03:43:49;100433.06;;;5.17;71.73
77321;BME280;66382;52.252;8.780;2023-02-01T03:46:22;100427.44;;;5.21;72.12
77321;BME280;66382;52.252;8.780;2023-02-01T03:48:50;100408.50;;;5.24;71.85
77321;BME280;66382;52.252;8.780;2023-02-01T03:51:17;100408.50;;;5.24;72.05
77321;BME280;66382;52.252;8.780;2023-02-01T03:53:47;100413.38;;;5.28;71.92
77321;BME280;66382;52.252;8.780;2023-02-01T03:56:14;100409.88;;;5.28;71.92
77321;BME280;66382;52.252;8.780;2023-02-01T03:58:41;100412.53;;;5.28;71.94
77321;BME280;66382;52.252;8.780;2023-02-01T04:01:06;100411.72;;;5.27;71.56
77321;BME280;66382;52.252;8.780;2023-02-01T04:03:32;100411.38;;;5.30;72.23
77321;BME280;66382;52.252;8.780;2023-02-01T04:05:58;100399.47;;;5.34;71.64
77321;BME280;66382;52.252;8.780;2023-02-01T04:08:24;100412.56;;;5.36;71.92
77321;BME280;66382;52.252;8.780;2023-02-01T04:10:51;100393.16;;;5.35;71.53
77321;BME280;66382;52.252;8.780;2023-02-01T04:13:17;100396.63;;;5.36;71.74
77321;BME280;66382;52.252;8.780;2023-02-01T04:15:42;100399.97;;;5.38;71.79
77321;BME280;66382;52.252;8.780;2023-02-01T04:18:08;100400.78;;;5.38;71.98
77321;BME280;66382;52.252;8.780;2023-02-01T04:20:34;100398.00;;;5.40;71.80
77321;BME280;66382;52.252;8.780;2023-02-01T04:23:00;100402.47;;;5.39;72.06
77321;BME280;66382;52.252;8.780;2023-02-01T04:25:25;100394.66;;;5.38;71.88
77321;BME280;66382;52.252;8.780;2023-02-01T04:27:52;100396.47;;;5.37;71.65
77321;BME280;66382;52.252;8.780;2023-02-01T04:30:18;100385.16;;;5.35;71.89
77321;BME280;66382;52.252;8.780;2023-02-01T04:32:44;100388.66;;;5.36;71.69
77321;BME280;66382;52.252;8.780;2023-02-01T04:35:10;100389.34;;;5.38;71.66
77321;BME280;66382;52.252;8.780;2023-02-01T04:37:35;100381.22;;;5.39;71.78
77321;BME280;66382;52.252;8.780;2023-02-01T04:40:01;100391.53;;;5.43;72.20
77321;BME280;66382;52.252;8.780;2023-02-01T04:42:27;100393.19;;;5.44;71.52
77321;BME280;66382;52.252;8.780;2023-02-01T04:44:54;100379.06;;;5.43;71.75
77321;BME280;66382;52.252;8.780;2023-02-01T04:47:20;100391.06;;;5.47;72.20
77321;BME280;66382;52.252;8.780;2023-02-01T04:49:46;100385.19;;;5.44;71.48
77321;BME280;66382;52.252;8.780;2023-02-01T04:52:12;100382.72;;;5.42;71.61
77321;BME280;66382;52.252;8.780;2023-02-01T04:54:37;100379.72;;;5.37;71.86
77321;BME280;66382;52.252;8.780;2023-02-01T04:57:03;100369.91;;;5.37;71.67
77321;BME280;66382;52.252;8.780;2023-02-01T04:59:29;100364.44;;;5.39;71.76
77321;BME280;66382;52.252;8.780;2023-02-01T05:01:56;100353.41;;;5.34;72.04
77321;BME280;66382;52.252;8.780;2023-02-01T05:04:22;100370.41;;;5.41;71.89
77321;BME280;66382;52.252;8.780;2023-02-01T05:06:47;100374.75;;;5.42;71.86
77321;BME280;66382;52.252;8.780;2023-02-01T05:09:13;100360.09;;;5.38;71.54
77321;BME280;66382;52.252;8.780;2023-02-01T05:11:39;100365.41;;;5.38;71.64
77321;BME280;66382;52.252;8.780;2023-02-01T05:14:04;100359.25;;;5.37;72.21
77321;BME280;66382;52.252;8.780;2023-02-01T05:16:30;100370.56;;;5.39;72.07
77321;BME280;66382;52.252;8.780;2023-02-01T05:18:57;100368.75;;;5.40;72.06
77321;BME280;66382;52.252;8.780;2023-02-01T05:21:24;100350.97;;;5.41;72.16
77321;BME280;66382;52.252;8.780;2023-02-01T05:23:50;100342.16;;;5.40;71.91
77321;BME280;66382;52.252;8.780;2023-02-01T05:26:16;100350.97;;;5.41;72.25
77321;BME280;66382;52.252;8.780;2023-02-01T05:28:41;100355.47;;;5.40;72.09
77321;BME280;66382;52.252;8.780;2023-02-01T05:31:09;100350.97;;;5.41;72.19
77321;BME280;66382;52.252;8.780;2023-02-01T05:33:35;100345.66;;;5.41;71.91
77321;BME280;66382;52.252;8.780;2023-02-01T05:36:03;100338.16;;;5.36;72.25
77321;BME280;66382;52.252;8.780;2023-02-01T05:38:28;100345.97;;;5.37;72.19
77321;BME280;66382;52.252;8.780;2023-02-01T05:40:54;100345.16;;;5.37;72.48
77321;BME280;66382;52.252;8.780;2023-02-01T05:43:20;100346.47;;;5.41;72.54
77321;BME280;66382;52.252;8.780;2023-02-01T05:45:46;100323.34;;;5.33;72.15
77321;BME280;66382;52.252;8.780;2023-02-01T05:48:11;100329.88;;;5.39;72.31
77321;BME280;66382;52.252;8.780;2023-02-01T05:50:37;100330.69;;;5.39;72.63
77321;BME280;66382;52.252;8.780;2023-02-01T05:53:04;100328.34;;;5.36;72.41
77321;BME280;66382;52.252;8.780;2023-02-01T05:55:30;100339.97;;;5.35;72.81
77321;BME280;66382;52.252;8.780;2023-02-01T05:57:56;100340.44;;;5.31;73.01
77321;BME280;66382;52.252;8.780;2023-02-01T06:00:22;100335.47;;;5.28;72.53
77321;BME280;66382;52.252;8.780;2023-02-01T06:02:48;100332.13;;;5.26;72.57
77321;BME280;66382;52.252;8.780;2023-02-01T06:05:14;100332.28;;;5.24;72.78
77321;BME280;66382;52.252;8.780;2023-02-01T06:07:40;100314.16;;;5.20;72.45
77321;BME280;66382;52.252;8.780;2023-02-01T06:10:08;100314.34;;;5.26;72.89
77321;BME280;66382;52.252;8.780;2023-02-01T06:12:34;100318.16;;;5.24;73.16
77321;BME280;66382;52.252;8.780;2023-02-01T06:15:00;100315.69;;;5.30;72.87
77321;BME280;66382;52.252;8.780;2023-02-01T06:17:26;100316.53;;;5.31;73.16
77321;BME280;66382;52.252;8.780;2023-02-01T06:19:51;100329.66;;;5.32;73.13
77321;BME280;66382;52.252;8.780;2023-02-01T06:22:17;100331.31;;;5.33;72.96
77321;BME280;66382;52.252;8.780;2023-02-01T06:24:43;100324.03;;;5.35;73.01
77321;BME280;66382;52.252;8.780;2023-02-01T06:27:10;100321.22;;;5.37;72.63
77321;BME280;66382;52.252;8.780;2023-02-01T06:29:36;100326.00;;;5.33;72.78
77321;BME280;66382;52.252;8.780;2023-02-01T06:32:01;100330.84;;;5.38;72.41
77321;BME280;66382;52.252;8.780;2023-02-01T06:34:27;100335.69;;;5.43;72.50
77321;BME280;66382;52.252;8.780;2023-02-01T06:36:53;100347.00;;;5.45;72.60
77321;BME280;66382;52.252;8.780;2023-02-01T06:39:19;100337.69;;;5.49;72.91
77321;BME280;66382;52.252;8.780;2023-02-01T06:41:46;100352.69;;;5.50;72.90
77321;BME280;66382;52.252;8.780;2023-02-01T06:44:13;100337.06;;;5.47;72.91
77321;BME280;66382;52.252;8.780;2023-02-01T06:46:39;100353.50;;;5.50;72.54
77321;BME280;66382;52.252;8.780;2023-02-01T06:49:05;100347.88;;;5.53;72.71
77321;BME280;66382;52.252;8.780;2023-02-01T06:51:30;100360.19;;;5.54;72.47
77321;BME280;66382;52.252;8.780;2023-02-01T06:53:56;100356.84;;;5.52;72.81
77321;BME280;66382;52.252;8.780;2023-02-01T06:56:22;100351.69;;;5.51;72.18
77321;BME280;66382;52.252;8.780;2023-02-01T06:58:48;100355.84;;;5.53;72.48
77321;BME280;66382;52.252;8.780;2023-02-01T07:01:16;100366.66;;;5.52;72.41
77321;BME280;66382;52.252;8.780;2023-02-01T07:03:42;100365.66;;;5.53;72.85
77321;BME280;66382;52.252;8.780;2023-02-01T07:06:08;100368.31;;;5.53;72.44
77321;BME280;66382;52.252;8.780;2023-02-01T07:08:36;100363.81;;;5.53;72.62
77321;BME280;66382;52.252;8.780;2023-02-01T07:11:03;100367.94;;;5.48;72.72
77321;BME280;66382;52.252;8.780;2023-02-01T07:13:29;100364.00;;;5.52;72.39
77321;BME280;66382;52.252;8.780;2023-02-01T07:15:57;100377.28;;;5.52;72.16
77321;BME280;66382;52.252;8.780;2023-02-01T07:18:25;100373.63;;;5.53;72.49
77321;BME280;66382;52.252;8.780;2023-02-01T07:20:50;100364.81;;;5.52;72.46
77321;BME280;66382;52.252;8.780;2023-02-01T07:23:16;100375.47;;;5.52;72.50
77321;BME280;66382;52.252;8.780;2023-02-01T07:25:42;100381.75;;;5.51;72.30
77321;BME280;66382;52.252;8.780;2023-02-01T07:28:07;100364.78;;;5.44;72.03
77321;BME280;66382;52.252;8.780;2023-02-01T07:30:33;100382.59;;;5.52;72.23
77321;BME280;66382;52.252;8.780;2023-02-01T07:32:59;100394.75;;;5.54;72.32
77321;BME280;66382;52.252;8.780;2023-02-01T07:35:26;100375.81;;;5.57;72.13
77321;BME280;66382;52.252;8.780;2023-02-01T07:37:52;100379.97;;;5.60;72.12
77321;BME280;66382;52.252;8.780;2023-02-01T07:40:18;100379.66;;;5.63;72.18
77321;BME280;66382;52.252;8.780;2023-02-01T07:42:44;100386.47;;;5.66;71.70
77321;BME280;66382;52.252;8.780;2023-02-01T07:45:10;100387.16;;;5.68;72.14
77321;BME280;66382;52.252;8.780;2023-02-01T07:47:35;100392.31;;;5.69;72.13
77321;BME280;66382;52.252;8.780;2023-02-01T07:50:01;100398.16;;;5.73;71.97
77321;BME280;66382;52.252;8.780;2023-02-01T07:52:28;100393.50;;;5.75;71.84
77321;BME280;66382;52.252;8.780;2023-02-01T07:54:54;100393.19;;;5.78;72.06
77321;BME280;66382;52.252;8.780;2023-02-01T07:57:20;100394.34;;;5.75;71.84
77321;BME280;66382;52.252;8.780;2023-02-01T07:59:45;100406.84;;;5.83;72.09
77321;BME280;66382;52.252;8.780;2023-02-01T08:02:11;100412.84;;;5.85;71.90
77321;BME280;66382;52.252;8.780;2023-02-01T08:04:37;100413.50;;;5.87;71.83
77321;BME280;66382;52.252;8.780;2023-02-01T08:07:02;100404.53;;;5.88;71.72
77321;BME280;66382;52.252;8.780;2023-02-01T08:09:29;100414.88;;;5.91;71.75
77321;BME280;66382;52.252;8.780;2023-02-01T08:11:55;100408.53;;;5.92;71.84
77321;BME280;66382;52.252;8.780;2023-02-01T08:14:21;100415.41;;;5.95;71.81
77321;BME280;66382;52.252;8.780;2023-02-01T08:16:46;100420.25;;;5.99;71.94
77321;BME280;66382;52.252;8.780;2023-02-01T08:19:12;100419.25;;;6.00;72.05
77321;BME280;66382;52.252;8.780;2023-02-01T08:21:38;100430.91;;;6.08;72.17
77321;BME280;66382;52.252;8.780;2023-02-01T08:24:05;100423.28;;;6.13;72.17
77321;BME280;66382;52.252;8.780;2023-02-01T08:26:32;100425.78;;;6.14;71.83
77321;BME280;66382;52.252;8.780;2023-02-01T08:29:00;100413.97;;;6.17;71.28
77321;BME280;66382;52.252;8.780;2023-02-01T08:31:28;100424.97;;;6.14;71.58
77321;BME280;66382;52.252;8.780;2023-02-01T08:33:56;100418.63;;;6.15;71.94
77321;BME280;66382;52.252;8.780;2023-02-01T08:36:23;100418.81;;;6.13;71.93
77321;BME280;66382;52.252;8.780;2023-02-01T08:38:49;100417.31;;;6.19;72.43
77321;BME280;66382;52.252;8.780;2023-02-01T08:41:16;100420.31;;;6.24;72.21
77321;BME280;66382;52.252;8.780;2023-02-01T08:43:44;100425.81;;;6.22;71.82
77321;BME280;66382;52.252;8.780;2023-02-01T08:46:11;100432.63;;;6.25;71.94
77321;BME280;66382;52.252;8.780;2023-02-01T08:48:37;100423.81;;;6.33;71.81
77321;BME280;66382;52.252;8.780;2023-02-01T08:51:05;100423.53;;;6.36;72.09
77321;BME280;66382;52.252;8.780;2023-02-01T08:53:31;100427.34;;;6.41;71.69
77321;BME280;66382;52.252;8.780;2023-02-01T08:55:58;100426.53;;;6.41;71.56
77321;BME280;66382;52.252;8.780;2023-02-01T08:58:23;100427.19;;;6.43;71.89
77321;BME280;66382;52.252;8.780;2023-02-01T09:00:51;100417.19;;;6.45;71.48
77321;BME280;66382;52.252;8.780;2023-02-01T09:03:16;100428.03;;;6.43;71.54
77321;BME280;66382;52.252;8.780;2023-02-01T09:05:42;100435.00;;;6.44;72.07
77321;BME280;66382;52.252;8.780;2023-02-01T09:08:08;100406.03;;;6.33;71.04
77321;BME280;66382;52.252;8.780;2023-02-01T09:10:35;100437.03;;;6.51;71.38
77321;BME280;66382;52.252;8.780;2023-02-01T09:13:01;100432.03;;;6.56;71.53
77321;BME280;66382;52.252;8.780;2023-02-01T09:15:27;100428.91;;;6.60;71.24
77321;BME280;66382;52.252;8.780;2023-02-01T09:17:54;100427.22;;;6.67;71.35
77321;BME280;66382;52.252;8.780;2023-02-01T09:20:20;100425.41;;;6.76;71.72
77321;BME280;66382;52.252;8.780;2023-02-01T09:22:46;100429.75;;;6.85;71.72
77321;BME280;66382;52.252;8.780;2023-02-01T09:25:11;100417.75;;;6.98;71.29
77321;BME280;66382;52.252;8.780;2023-02-01T09:27:37;100414.25;;;7.05;70.71
77321;BME280;66382;52.252;8.780;2023-02-01T09:30:03;100419.09;;;7.10;70.71
77321;BME280;66382;52.252;8.780;2023-02-01T09:32:29;100419.53;;;7.22;70.89
77321;BME280;66382;52.252;8.780;2023-02-01T09:34:56;100414.69;;;7.33;71.22
77321;BME280;66382;52.252;8.780;2023-02-01T09:37:22;100420.34;;;7.39;70.93
77321;BME280;66382;52.252;8.780;2023-02-01T09:39:48;100408.03;;;7.38;70.29
77321;BME280;66382;52.252;8.780;2023-02-01T09:42:21;100404.03;;;7.33;71.04
77321;BME280;66382;52.252;8.780;2023-02-01T09:45:02;100419.22;;;7.33;70.12
77321;BME280;66382;52.252;8.780;2023-02-01T09:47:31;100412.03;;;7.33;69.98
77321;BME280;66382;52.252;8.780;2023-02-01T09:50:04;100420.34;;;7.39;70.58
77321;BME280;66382;52.252;8.780;2023-02-01T09:52:36;100405.03;;;7.41;70.27
77321;BME280;66382;52.252;8.780;2023-02-01T09:55:09;100407.03;;;7.47;71.25
77321;BME280;66382;52.252;8.780;2023-02-01T09:57:47;100409.50;;;7.48;71.01
77321;BME280;66382;52.252;8.780;2023-02-01T10:00:20;100411.66;;;7.53;70.24
77321;BME280;66382;52.252;8.780;2023-02-01T10:02:49;100407.84;;;7.47;69.55
77321;BME280;66382;52.252;8.780;2023-02-01T10:05:27;100412.31;;;7.55;70.39
77321;BME280;66382;52.252;8.780;2023-02-01T10:08:01;100393.19;;;7.43;69.80
77321;BME280;66382;52.252;8.780;2023-02-01T10:10:35;100425.84;;;7.45;68.50
77321;BME280;66382;52.252;8.780;2023-02-01T10:13:23;100397.38;;;7.38;69.57
77321;BME280;66382;52.252;8.780;2023-02-01T10:16:04;100401.22;;;7.35;69.63
77321;BME280;66382;52.252;8.780;2023-02-01T10:18:52;100398.91;;;7.32;70.31
77321;BME280;66382;52.252;8.780;2023-02-01T10:21:36;100410.19;;;7.34;69.94
77321;BME280;66382;52.252;8.780;2023-02-01T10:24:31;100398.69;;;7.33;70.76
77321;BME280;66382;52.252;8.780;2023-02-01T10:27:02;100408.69;;;7.31;69.48
77321;BME280;66382;52.252;8.780;2023-02-01T10:29:35;100399.72;;;7.32;70.21
77321;BME280;66382;52.252;8.780;2023-02-01T10:32:10;100404.38;;;7.30;69.97
77321;BME280;66382;52.252;8.780;2023-02-01T10:34:37;100387.03;;;7.26;70.19
77321;BME280;66382;52.252;8.780;2023-02-01T10:37:16;100396.72;;;7.27;69.67
77321;BME280;66382;52.252;8.780;2023-02-01T10:39:43;100389.91;;;7.25;69.33
77321;BME280;66382;52.252;8.780;2023-02-01T10:42:09;100384.75;;;7.15;69.70
77321;BME280;66382;52.252;8.780;2023-02-01T10:44:41;100379.06;;;7.18;69.98
77321;BME280;66382;52.252;8.780;2023-02-01T10:47:08;100383.75;;;7.16;69.63
77321;BME280;66382;52.252;8.780;2023-02-01T10:49:41;100398.09;;;7.15;69.89
77321;BME280;66382;52.252;8.780;2023-02-01T10:52:15;100395.56;;;7.14;70.05
77321;BME280;66382;52.252;8.780;2023-02-01T10:54:42;100386.75;;;7.13;69.63
77321;BME280;66382;52.252;8.780;2023-02-01T10:57:09;100367.56;;;7.09;68.99
77321;BME280;66382;52.252;8.780;2023-02-01T10:59:36;100372.75;;;7.11;70.34
77321;BME280;66382;52.252;8.780;2023-02-01T11:02:13;100369.41;;;7.09;70.04
77321;BME280;66382;52.252;8.780;2023-02-01T11:04:41;100365.44;;;7.05;69.69
77321;BME280;66382;52.252;8.780;2023-02-01T11:07:16;100351.44;;;7.03;69.53
77321;BME280;66382;52.252;8.780;2023-02-01T11:09:49;100352.44;;;7.02;69.87
77321;BME280;66382;52.252;8.780;2023-02-01T11:12:28;100344.94;;;7.05;70.14
77321;BME280;66382;52.252;8.780;2023-02-01T11:14:59;100327.09;;;7.06;69.91
77321;BME280;66382;52.252;8.780;2023-02-01T11:17:30;100320.28;;;7.03;70.01
77321;BME280;66382;52.252;8.780;2023-02-01T11:19:59;100317.78;;;7.02;69.14
77321;BME280;66382;52.252;8.780;2023-02-01T11:22:26;100321.47;;;7.01;69.10
77321;BME280;66382;52.252;8.780;2023-02-01T11:24:52;100332.28;;;7.07;69.69
77321;BME280;66382;52.252;8.780;2023-02-01T11:27:21;100320.44;;;7.10;69.50
77321;BME280;66382;52.252;8.780;2023-02-01T11:29:51;100308.09;;;7.09;69.24
77321;BME280;66382;52.252;8.780;2023-02-01T11:32:19;100308.28;;;7.07;69.57
77321;BME280;66382;52.252;8.780;2023-02-01T11:34:47;100291.13;;;7.10;69.55
77321;BME280;66382;52.252;8.780;2023-02-01T11:37:17;100294.63;;;7.10;69.64
77321;BME280;66382;52.252;8.780;2023-02-01T11:39:53;100282.78;;;7.13;69.70
77321;BME280;66382;52.252;8.780;2023-02-01T11:42:19;100274.44;;;7.16;69.79
77321;BME280;66382;52.252;8.780;2023-02-01T11:44:46;100277.28;;;7.15;70.26
77321;BME280;66382;52.252;8.780;2023-02-01T11:47:19;100269.28;;;7.15;69.58
77321;BME280;66382;52.252;8.780;2023-02-01T11:49:45;100267.28;;;7.08;69.87
77321;BME280;66382;52.252;8.780;2023-02-01T11:52:16;100262.16;;;6.99;69.79
77321;BME280;66382;52.252;8.780;2023-02-01T11:55:02;100260.50;;;6.89;70.82
77321;BME280;66382;52.252;8.780;2023-02-01T11:57:41;100257.22;;;6.87;70.17
77321;BME280;66382;52.252;8.780;2023-02-01T12:00:26;100257.38;;;6.86;70.43
77321;BME280;66382;52.252;8.780;2023-02-01T12:03:24;100256.03;;;6.82;70.82
77321;BME280;66382;52.252;8.780;2023-02-01T12:05:57;100254.72;;;6.78;70.73
77321;BME280;66382;52.252;8.780;2023-02-01T12:08:41;100268.72;;;6.72;70.78
77321;BME280;66382;52.252;8.780;2023-02-01T12:11:35;100235.94;;;6.63;71.09
77321;BME280;66382;52.252;8.780;2023-02-01T12:14:18;100254.75;;;6.61;70.54
77321;BME280;66382;52.252;8.780;2023-02-01T12:16:56;100242.44;;;6.60;70.88
77321;BME280;66382;52.252;8.780;2023-02-01T12:19:40;100240.75;;;6.59;71.08
77321;BME280;66382;52.252;8.780;2023-02-01T12:22:22;100228.81;;;6.55;70.70
77321;BME280;66382;52.252;8.780;2023-02-01T12:25:23;100238.13;;;6.51;71.67
77321;BME280;66382;52.252;8.780;2023-02-01T12:28:11;100228.44;;;6.50;71.10
77321;BME280;66382;52.252;8.780;2023-02-01T12:31:07;100220.31;;;6.43;70.90
77321;BME280;66382;52.252;8.780;2023-02-01T12:33:47;100231.63;;;6.37;71.35
77321;BME280;66382;52.252;8.780;2023-02-01T12:36:25;100225.00;;;6.33;71.43
77321;BME280;66382;52.252;8.780;2023-02-01T12:39:00;100224.00;;;6.34;71.28
77321;BME280;66382;52.252;8.780;2023-02-01T12:41:47;100229.66;;;6.31;71.52
77321;BME280;66382;52.252;8.780;2023-02-01T12:44:26;100214.19;;;6.27;71.30
77321;BME280;66382;52.252;8.780;2023-02-01T12:46:56;100221.66;;;6.23;71.59
77321;BME280;66382;52.252;8.780;2023-02-01T12:49:29;100219.50;;;6.18;71.54
77321;BME280;66382;52.252;8.780;2023-02-01T12:52:01;100217.34;;;6.14;72.26
77321;BME280;66382;52.252;8.780;2023-02-01T12:54:35;100204.34;;;6.11;71.64
77321;BME280;66382;52.252;8.780;2023-02-01T12:57:04;100202.69;;;6.10;72.20
77321;BME280;66382;52.252;8.780;2023-02-01T12:59:35;100201.38;;;6.06;72.40
77321;BME280;66382;52.252;8.780;2023-02-01T13:02:14;100199.88;;;6.03;71.67
77321;BME280;66382;52.252;8.780;2023-02-01T13:04:49;100203.38;;;6.03;72.40
77321;BME280;66382;52.252;8.780;2023-02-01T13:07:19;100201.53;;;6.04;72.71
77321;BME280;66382;52.252;8.780;2023-02-01T13:09:47;100186.41;;;6.05;72.42
77321;BME280;66382;52.252;8.780;2023-02-01T13:12:19;100187.56;;;6.02;72.52
77321;BME280;66382;52.252;8.780;2023-02-01T13:14:52;100195.22;;;6.05;71.93